createdAt,value
2023-03-27T00:01:52.027Z,95372.19
2023-03-27T00:04:24.808Z,95382.84
2023-03-27T00:06:57.576Z,95383.63
2023-03-27T00:09:32.034Z,95380.97
2023-03-27T00:12:04.896Z,95390.16
2023-03-27T00:14:39.534Z,95395.16
2023-03-27T00:17:12.406Z,95389.06
2023-03-27T00:19:45.353Z,95397.94
2023-03-27T00:22:18.158Z,95396.81
2023-03-27T00:24:50.942Z,95399.91
2023-03-27T00:27:25.228Z,95399.59
2023-03-27T00:29:59.653Z,95396.16
2023-03-27T00:32:32.727Z,95395.81
2023-03-27T00:35:05.671Z,95404.16
2023-03-27T00:37:38.711Z,95390.38
2023-03-27T00:40:17.702Z,95383.16
2023-03-27T00:42:51.255Z,95385.72
2023-03-27T00:45:28.821Z,95393.63
2023-03-27T00:48:03.334Z,95394.28
2023-03-27T00:50:38.319Z,95394.19
2023-03-27T00:53:13.345Z,95388.41
2023-03-27T00:55:47.630Z,95394.41
2023-03-27T00:58:22.522Z,95401.97
2023-03-27T01:00:57.565Z,95397.31
2023-03-27T01:03:32.475Z,95398.75
2023-03-27T01:06:05.704Z,95409.75
2023-03-27T01:08:39.031Z,95405.09
2023-03-27T01:11:16.609Z,95403.53
2023-03-27T01:13:57.970Z,95403.44
2023-03-27T01:16:36.031Z,95401.53
2023-03-27T01:19:22.704Z,95403.44
2023-03-27T01:22:09.582Z,95409.53
2023-03-27T01:24:57.999Z,95417.53
2023-03-27T01:27:44.732Z,95417.53
2023-03-27T01:30:20.551Z,95414.53
2023-03-27T01:33:21.743Z,95414.97
2023-03-27T01:36:02.848Z,95429.06
2023-03-27T01:39:06.215Z,95434.50
2023-03-27T01:41:44.441Z,95426.16
2023-03-27T01:44:21.038Z,95447.94
2023-03-27T01:46:56.743Z,95440.06
2023-03-27T01:49:32.383Z,95431.72
2023-03-27T01:52:08.580Z,95437.94
2023-03-27T01:54:44.024Z,95439.16
2023-03-27T01:57:20.751Z,95443.00
2023-03-27T01:59:55.855Z,95448.00
2023-03-27T02:02:29.961Z,95443.91
2023-03-27T02:05:04.936Z,95456.13
2023-03-27T02:07:41.014Z,95464.56
2023-03-27T02:10:17.855Z,95464.22
2023-03-27T02:12:55.869Z,95469.53
2023-03-27T02:15:31.579Z,95474.53
2023-03-27T02:18:05.980Z,95476.88
2023-03-27T02:20:39.506Z,95479.22
2023-03-27T02:23:12.381Z,95487.28
2023-03-27T02:25:46.244Z,95485.41
2023-03-27T02:28:29.344Z,95490.41
2023-03-27T02:31:33.825Z,95498.06
2023-03-27T02:34:07.165Z,95501.53
2023-03-27T02:36:46.037Z,95497.75
2023-03-27T02:39:23.203Z,95504.63
2023-03-27T02:42:01.416Z,95505.84
2023-03-27T02:44:46.952Z,95503.94
2023-03-27T02:47:23.523Z,95515.84
2023-03-27T02:49:58.880Z,95517.38
2023-03-27T02:52:34.832Z,95516.72
2023-03-27T02:55:09.722Z,95525.50
2023-03-27T02:57:51.785Z,95529.38
2023-03-27T03:00:28.546Z,95532.47
2023-03-27T03:03:07.193Z,95541.25
2023-03-27T03:05:41.261Z,95544.38
2023-03-27T03:08:14.731Z,95544.38
2023-03-27T03:10:47.822Z,95552.78
2023-03-27T03:13:20.687Z,95553.56
2023-03-27T03:15:55.125Z,95557.47
2023-03-27T03:18:28.036Z,95560.47
2023-03-27T03:21:00.961Z,95573.13
2023-03-27T03:23:34.040Z,95572.03
2023-03-27T03:26:07.518Z,95573.59
2023-03-27T03:28:40.195Z,95578.59
2023-03-27T03:31:44.390Z,95590.00
2023-03-27T03:34:18.493Z,95592.66
2023-03-27T03:36:55.181Z,95588.13
2023-03-27T03:39:27.849Z,95596.13
2023-03-27T03:42:00.744Z,95603.69
2023-03-27T03:44:34.720Z,95605.59
2023-03-27T03:47:09.205Z,95605.59
2023-03-27T03:49:42.930Z,95620.34
2023-03-27T03:52:15.790Z,95615.69
2023-03-27T03:54:48.475Z,95627.44
2023-03-27T03:57:21.847Z,95633.56
2023-03-27T03:59:54.821Z,95640.78
2023-03-27T04:02:31.839Z,95640.69
2023-03-27T04:05:08.606Z,95647.59
2023-03-27T04:07:42.496Z,95657.78
2023-03-27T04:10:15.407Z,95655.38
2023-03-27T04:12:48.603Z,95661.91
2023-03-27T04:15:21.514Z,95668.69
2023-03-27T04:17:57.871Z,95661.03
2023-03-27T04:20:34.735Z,95670.13
2023-03-27T04:23:08.469Z,95675.47
2023-03-27T04:25:41.463Z,95683.31
2023-03-27T04:28:16.617Z,95694.31
2023-03-27T04:30:50.566Z,95699.22
2023-03-27T04:33:24.841Z,95704.09
2023-03-27T04:36:06.873Z,95711.31
2023-03-27T04:38:40.942Z,95720.41
2023-03-27T04:41:13.833Z,95721.97
2023-03-27T04:43:46.538Z,95727.31
2023-03-27T04:46:19.187Z,95729.97
2023-03-27T04:48:53.468Z,95732.31
2023-03-27T04:51:26.709Z,95736.53
2023-03-27T04:53:59.425Z,95742.66
2023-03-27T04:56:33.876Z,95752.22
2023-03-27T04:59:06.628Z,95754.09
2023-03-27T05:01:40.220Z,95757.19
2023-03-27T05:04:14.434Z,95767.06
2023-03-27T05:06:47.150Z,95765.97
2023-03-27T05:09:20.074Z,95782.75
2023-03-27T05:11:52.885Z,95789.63
2023-03-27T05:14:25.817Z,95794.97
2023-03-27T05:17:00.855Z,95797.63
2023-03-27T05:19:35.604Z,95801.72
2023-03-27T05:22:08.629Z,95797.41
2023-03-27T05:24:41.737Z,95805.16
2023-03-27T05:27:15.504Z,95807.91
2023-03-27T05:29:49.365Z,95815.19
2023-03-27T05:32:22.866Z,95825.25
2023-03-27T05:34:57.609Z,95831.09
2023-03-27T05:37:30.750Z,95825.19
2023-03-27T05:40:04.190Z,95839.63
2023-03-27T05:42:37.409Z,95845.16
2023-03-27T05:45:10.854Z,95853.78
2023-03-27T05:47:47.521Z,95849.09
2023-03-27T05:50:23.231Z,95864.16
2023-03-27T05:52:56.800Z,95864.81
2023-03-27T05:55:29.724Z,95877.53
2023-03-27T05:58:02.561Z,95881.47
2023-03-27T06:00:36.510Z,95882.28
2023-03-27T06:03:10.081Z,95890.47
2023-03-27T06:05:44.421Z,95902.84
2023-03-27T06:08:17.309Z,95903.03
2023-03-27T06:10:50.049Z,95903.66
2023-03-27T06:13:24.317Z,95924.50
2023-03-27T06:15:57.629Z,95921.84
2023-03-27T06:18:31.038Z,95937.03
2023-03-27T06:21:05.733Z,95939.38
2023-03-27T06:23:40.421Z,95945.81
2023-03-27T06:26:14.003Z,95955.69
2023-03-27T06:28:46.758Z,95959.91
2023-03-27T06:31:20.297Z,95964.44
2023-03-27T06:33:53.106Z,95979.63
2023-03-27T06:36:27.872Z,95979.94
2023-03-27T06:39:04.103Z,95997.47
2023-03-27T06:41:37.182Z,95995.13
2023-03-27T06:44:09.864Z,96004.81
2023-03-27T06:46:45.582Z,96015.03
2023-03-27T06:49:18.833Z,96020.66
2023-03-27T06:51:53.041Z,96022.84
2023-03-27T06:54:25.810Z,96025.03
2023-03-27T06:57:01.304Z,96027.22
2023-03-27T06:59:34.117Z,96031.78
2023-03-27T07:02:07.378Z,96046.97
2023-03-27T07:04:46.084Z,96059.31
2023-03-27T07:07:25.434Z,96065.75
2023-03-27T07:09:59.155Z,96072.63
2023-03-27T07:12:32.382Z,96077.78
2023-03-27T07:15:06.617Z,96078.13
2023-03-27T07:17:48.556Z,96086.09
2023-03-27T07:20:22.330Z,96092.31
2023-03-27T07:22:57.513Z,96094.03
2023-03-27T07:25:36.932Z,96086.94
2023-03-27T07:28:10.908Z,96108.53
2023-03-27T07:30:43.582Z,96103.16
2023-03-27T07:33:16.365Z,96103.91
2023-03-27T07:35:49.485Z,96121.31
2023-03-27T07:38:23.586Z,96129.91
2023-03-27T07:40:57.599Z,96126.63
2023-03-27T07:43:30.278Z,96141.50
2023-03-27T07:46:03.495Z,96146.19
2023-03-27T07:48:36.309Z,96160.28
2023-03-27T07:51:13.812Z,96158.88
2023-03-27T07:53:49.322Z,96158.22
2023-03-27T07:56:22.104Z,96161.06
2023-03-27T07:58:55.435Z,96162.31
2023-03-27T08:01:29.084Z,96174.66
2023-03-27T08:04:01.983Z,96182.50
2023-03-27T08:06:35.196Z,96182.63
2023-03-27T08:09:13.252Z,96192.34
2023-03-27T08:11:45.994Z,96203.47
2023-03-27T08:14:18.833Z,96211.16
2023-03-27T08:16:51.610Z,96218.03
2023-03-27T08:19:25.328Z,96220.59
2023-03-27T08:21:58.038Z,96226.53
2023-03-27T08:24:32.209Z,96236.75
2023-03-27T08:27:05.112Z,96241.94
2023-03-27T08:29:39.112Z,96253.56
2023-03-27T08:32:12.198Z,96260.47
2023-03-27T08:34:45.078Z,96266.91
2023-03-27T08:37:18.286Z,96276.78
2023-03-27T08:39:52.388Z,96284.50
2023-03-27T08:42:28.338Z,96295.00
2023-03-27T08:45:05.165Z,96299.53
2023-03-27T08:47:40.042Z,96309.56
2023-03-27T08:50:19.513Z,96314.41
2023-03-27T08:52:52.217Z,96315.34
2023-03-27T08:55:33.975Z,96319.38
2023-03-27T08:58:06.741Z,96321.25
2023-03-27T09:00:42.649Z,96329.50
2023-03-27T09:03:19.717Z,96342.78
2023-03-27T09:05:55.377Z,96333.19
2023-03-27T09:08:35.755Z,96340.06
2023-03-27T09:11:15.352Z,96344.75
2023-03-27T09:13:49.379Z,96350.00
2023-03-27T09:16:24.351Z,96350.28
2023-03-27T09:19:01.292Z,96357.78
2023-03-27T09:21:38.433Z,96353.88
2023-03-27T09:24:15.672Z,96355.13
2023-03-27T09:27:04.479Z,96364.56
2023-03-27T09:29:42.486Z,96349.47
2023-03-27T09:32:17.204Z,96341.38
2023-03-27T09:34:49.928Z,96339.06
2023-03-27T09:37:22.716Z,96343.06
2023-03-27T09:39:56.314Z,96347.00
2023-03-27T09:42:34.466Z,96353.28
2023-03-27T09:45:09.262Z,96364.44
2023-03-27T09:47:45.615Z,96364.16
2023-03-27T09:50:26.277Z,96367.59
2023-03-27T09:53:11.140Z,96365.22
2023-03-27T09:55:52.832Z,96371.13
2023-03-27T09:58:37.069Z,96366.09
2023-03-27T10:01:13.448Z,96365.44
2023-03-27T10:03:51.471Z,96367.00
2023-03-27T10:06:27.751Z,96369.16
2023-03-27T10:09:02.136Z,96375.13
2023-03-27T10:11:35.629Z,96372.25
2023-03-27T10:14:14.215Z,96381.34
2023-03-27T10:16:48.173Z,96389.19
2023-03-27T10:19:22.304Z,96384.75
2023-03-27T10:21:56.182Z,96399.06
2023-03-27T10:24:31.831Z,96403.28
2023-03-27T10:27:07.195Z,96396.03
2023-03-27T10:29:41.417Z,96398.84
2023-03-27T10:32:14.864Z,96406.69
2023-03-27T10:34:54.569Z,96416.88
2023-03-27T10:37:29.122Z,96414.50
2023-03-27T10:40:09.579Z,96420.09
2023-03-27T10:42:42.406Z,96429.84
2023-03-27T10:45:18.638Z,96427.44
2023-03-27T10:47:53.586Z,96442.97
2023-03-27T10:50:29.552Z,96437.09
2023-03-27T10:53:07.153Z,96436.25
2023-03-27T10:55:51.642Z,96436.88
2023-03-27T10:58:27.962Z,96433.53
2023-03-27T11:01:05.680Z,96446.84
2023-03-27T11:03:41.198Z,96443.53
2023-03-27T11:06:15.691Z,96446.81
2023-03-27T11:08:53.173Z,96459.34
2023-03-27T11:11:27.957Z,96459.63
2023-03-27T11:14:02.594Z,96462.56
2023-03-27T11:16:41.135Z,96464.38
2023-03-27T11:19:25.905Z,96464.78
2023-03-27T11:22:01.309Z,96466.13
2023-03-27T11:24:38.374Z,96470.94
2023-03-27T11:27:15.117Z,96476.88
2023-03-27T11:29:51.832Z,96468.66
2023-03-27T11:32:30.116Z,96474.47
2023-03-27T11:35:07.265Z,96478.25
2023-03-27T11:37:43.994Z,96480.47
2023-03-27T11:40:20.304Z,96481.56
2023-03-27T11:42:53.635Z,96492.63
2023-03-27T11:45:28.944Z,96487.25
2023-03-27T11:48:10.901Z,96490.53
2023-03-27T11:50:48.675Z,96487.50
2023-03-27T11:53:35.280Z,96496.25
2023-03-27T11:56:15.709Z,96504.97
2023-03-27T11:58:56.725Z,96500.53
2023-03-27T12:01:33.806Z,96504.47
2023-03-27T12:04:21.839Z,96509.59
2023-03-27T12:07:04.371Z,96510.84
2023-03-27T12:09:44.382Z,96527.25
2023-03-27T12:12:35.833Z,96522.22
2023-03-27T12:15:16.887Z,96519.75
2023-03-27T12:17:58.230Z,96520.94
2023-03-27T12:20:51.880Z,96525.69
2023-03-27T12:23:38.847Z,96528.34
2023-03-27T12:26:18.386Z,96533.44
2023-03-27T12:29:02.191Z,96517.00
2023-03-27T12:31:47.994Z,96524.31
2023-03-27T12:34:30.621Z,96525.47
2023-03-27T12:37:06.293Z,96523.16
2023-03-27T12:39:45.937Z,96524.34
2023-03-27T12:42:33.468Z,96523.28
2023-03-27T12:45:18.241Z,96528.34
2023-03-27T12:48:10.032Z,96513.72
2023-03-27T12:50:46.878Z,96526.28
2023-03-27T12:53:41.572Z,96517.94
2023-03-27T12:56:26.918Z,96528.16
2023-03-27T12:58:59.783Z,96529.56
2023-03-27T13:01:52.020Z,96532.03
2023-03-27T13:04:39.730Z,96535.97
2023-03-27T13:07:17.115Z,96534.88
2023-03-27T13:09:56.646Z,96535.19
2023-03-27T13:12:45.205Z,96539.91
2023-03-27T13:15:31.732Z,96538.63
2023-03-27T13:18:12.403Z,96543.53
2023-03-27T13:20:48.296Z,96554.06
2023-03-27T13:23:29.039Z,96549.88
2023-03-27T13:26:17.310Z,96549.72
2023-03-27T13:28:52.796Z,96552.59
2023-03-27T13:31:44.002Z,96553.97
2023-03-27T13:34:28.553Z,96571.13
2023-03-27T13:37:07.358Z,96561.22
2023-03-27T13:39:40.888Z,96563.56
2023-03-27T13:42:14.917Z,96564.19
2023-03-27T13:44:54.748Z,96569.22
2023-03-27T13:47:41.814Z,96582.09
2023-03-27T13:50:21.065Z,96595.28
2023-03-27T13:53:09.639Z,96595.09
2023-03-27T13:55:51.296Z,96594.31
2023-03-27T13:58:36.765Z,96590.53
2023-03-27T14:01:27.723Z,96599.03
2023-03-27T14:04:21.058Z,96602.94
2023-03-27T14:07:06.652Z,96605.75
2023-03-27T14:09:47.480Z,96614.72
2023-03-27T14:12:22.035Z,96609.47
2023-03-27T14:15:10.497Z,96606.63
2023-03-27T14:17:55.042Z,96612.25
2023-03-27T14:20:29.627Z,96615.19
2023-03-27T14:23:05.903Z,96604.28
2023-03-27T14:25:40.283Z,96616.50
2023-03-27T14:28:29.152Z,96614.09
2023-03-27T14:31:06.028Z,96619.38
2023-03-27T14:33:49.209Z,96633.81
2023-03-27T14:36:26.242Z,96623.69
2023-03-27T14:39:01.361Z,96635.00
2023-03-27T14:41:34.077Z,96633.09
2023-03-27T14:44:06.817Z,96630.63
2023-03-27T14:46:40.515Z,96624.66
2023-03-27T14:49:15.520Z,96631.00
2023-03-27T14:51:49.711Z,96623.94
2023-03-27T14:54:27.130Z,96627.75
2023-03-27T14:57:00.883Z,96624.63
2023-03-27T14:59:35.697Z,96627.16
2023-03-27T15:02:14.647Z,96627.69
2023-03-27T15:04:48.747Z,96625.22
2023-03-27T15:07:28.868Z,96626.03
2023-03-27T15:10:03.598Z,96626.88
2023-03-27T15:12:37.004Z,96617.66
2023-03-27T15:15:18.274Z,96620.56
2023-03-27T15:17:54.875Z,96629.94
2023-03-27T15:20:31.912Z,96627.75
2023-03-27T15:23:09.904Z,96631.72
2023-03-27T15:25:46.015Z,96628.81
2023-03-27T15:28:22.132Z,96629.63
2023-03-27T15:30:57.977Z,96635.19
2023-03-27T15:33:34.380Z,96642.25
2023-03-27T15:36:11.567Z,96637.88
2023-03-27T15:38:45.060Z,96635.03
2023-03-27T15:41:44.716Z,96635.81
2023-03-27T15:44:18.385Z,96638.34
2023-03-27T15:46:54.083Z,96629.09
2023-03-27T15:49:31.694Z,96639.28
2023-03-27T15:52:19.348Z,96633.16
2023-03-27T15:54:56.392Z,96638.19
2023-03-27T15:57:30.671Z,96645.41
2023-03-27T16:00:08.661Z,96648.56
2023-03-27T16:02:41.865Z,96644.00
2023-03-27T16:05:17.347Z,96637.56
2023-03-27T16:07:50.119Z,96646.03
2023-03-27T16:10:31.874Z,96647.91
2023-03-27T16:13:06.524Z,96643.34
2023-03-27T16:15:40.711Z,96646.03
2023-03-27T16:18:17.980Z,96644.16
2023-03-27T16:20:51.076Z,96651.84
2023-03-27T16:23:23.796Z,96652.94
2023-03-27T16:25:58.250Z,96652.47
2023-03-27T16:28:31.605Z,96662.69
2023-03-27T16:31:11.439Z,96664.88
2023-03-27T16:33:45.359Z,96668.97
2023-03-27T16:36:20.910Z,96668.47
2023-03-27T16:38:53.630Z,96672.88
2023-03-27T16:41:29.110Z,96671.13
2023-03-27T16:44:01.827Z,96666.91
2023-03-27T16:46:34.574Z,96668.00
2023-03-27T16:49:07.226Z,96674.13
2023-03-27T16:51:40.001Z,96675.53
2023-03-27T16:54:12.656Z,96675.84
2023-03-27T16:56:47.216Z,96679.91
2023-03-27T16:59:20.323Z,96683.22
2023-03-27T17:01:53.160Z,96681.16
2023-03-27T17:04:26.233Z,96684.44
2023-03-27T17:06:59.117Z,96680.84
2023-03-27T17:09:32.387Z,96692.59
2023-03-27T17:12:06.750Z,96692.13
2023-03-27T17:14:39.470Z,96698.88
2023-03-27T17:17:12.505Z,96693.84
2023-03-27T17:19:45.164Z,96696.53
2023-03-27T17:22:18.292Z,96704.00
2023-03-27T17:24:56.709Z,96706.19
2023-03-27T17:27:31.660Z,96706.19
2023-03-27T17:30:04.967Z,96708.38
2023-03-27T17:32:38.085Z,96711.03
2023-03-27T17:35:11.326Z,96721.25
2023-03-27T17:37:44.081Z,96728.78
2023-03-27T17:40:17.295Z,96729.56
2023-03-27T17:42:51.540Z,96735.22
2023-03-27T17:45:24.707Z,96741.63
2023-03-27T17:47:57.682Z,96741.94
2023-03-27T17:50:30.422Z,96744.91
2023-03-27T17:53:03.546Z,96750.25
2023-03-27T17:55:37.664Z,96748.69
2023-03-27T17:58:12.488Z,96755.13
2023-03-27T18:00:45.333Z,96764.69
2023-03-27T18:03:18.168Z,96776.47
2023-03-27T18:05:51.040Z,96770.34
2023-03-27T18:08:24.004Z,96763.72
2023-03-27T18:10:56.811Z,96770.94
2023-03-27T18:13:31.238Z,96774.41
2023-03-27T18:16:07.036Z,96787.25
2023-03-27T18:18:40.579Z,96786.00
2023-03-27T18:21:15.597Z,96794.00
2023-03-27T18:23:49.061Z,96796.34
2023-03-27T18:26:21.806Z,96792.41
2023-03-27T18:28:56.046Z,96795.09
2023-03-27T18:31:29.424Z,96796.47
2023-03-27T18:34:02.282Z,96801.81
2023-03-27T18:36:34.975Z,96806.34
2023-03-27T18:39:07.779Z,96812.00
2023-03-27T18:41:41.177Z,96810.41
2023-03-27T18:44:15.601Z,96822.94
2023-03-27T18:46:48.321Z,96807.59
2023-03-27T18:49:25.312Z,96820.63
2023-03-27T18:51:58.392Z,96820.44
2023-03-27T18:54:31.303Z,96825.75
2023-03-27T18:57:04.474Z,96832.38
2023-03-27T18:59:38.687Z,96843.63
2023-03-27T19:02:11.674Z,96841.47
2023-03-27T19:04:44.576Z,96850.84
2023-03-27T19:07:17.815Z,96844.72
2023-03-27T19:09:50.489Z,96848.00
2023-03-27T19:12:23.245Z,96868.06
2023-03-27T19:15:00.475Z,96873.50
2023-03-27T19:17:37.450Z,96895.53
2023-03-27T19:20:11.450Z,96906.06
2023-03-27T19:22:44.449Z,96903.94
2023-03-27T19:25:18.117Z,96910.97
2023-03-27T19:27:51.134Z,96898.09
2023-03-27T19:30:25.657Z,96900.38
2023-03-27T19:32:59.342Z,96903.06
2023-03-27T19:35:32.592Z,96891.88
2023-03-27T19:38:05.868Z,96889.63
2023-03-27T19:40:38.723Z,96898.41
2023-03-27T19:43:11.594Z,96896.78
2023-03-27T19:46:04.452Z,96901.44
2023-03-27T19:48:49.733Z,96898.38
2023-03-27T19:51:23.066Z,96892.09
2023-03-27T19:53:56.221Z,96902.75
2023-03-27T19:56:29.433Z,96903.84
2023-03-27T19:59:02.366Z,96917.97
2023-03-27T20:01:37.876Z,96915.34
2023-03-27T20:04:11.166Z,96913.81
2023-03-27T20:06:47.179Z,96912.50
2023-03-27T20:09:20.604Z,96909.63
2023-03-27T20:11:53.960Z,96913.59
2023-03-27T20:14:26.857Z,96917.31
2023-03-27T20:17:01.569Z,96918.66
2023-03-27T20:19:34.996Z,96919.47
2023-03-27T20:22:09.344Z,96925.81
2023-03-27T20:24:42.196Z,96932.19
2023-03-27T20:27:15.074Z,96935.63
2023-03-27T20:29:48.227Z,96944.38
2023-03-27T20:32:22.365Z,96943.34
2023-03-27T20:34:55.664Z,96942.25
2023-03-27T20:37:29.930Z,96945.97
2023-03-27T20:40:12.017Z,96947.53
2023-03-27T20:42:48.605Z,96944.88
2023-03-27T20:45:27.047Z,96944.63
2023-03-27T20:48:04.244Z,96949.91
2023-03-27T20:50:38.151Z,96954.16
2023-03-27T20:53:11.677Z,96956.53
2023-03-27T20:56:02.717Z,96960.78
2023-03-27T20:58:36.337Z,96959.72
2023-03-27T21:01:10.643Z,96955.47
2023-03-27T21:03:46.801Z,96961.78
2023-03-27T21:06:22.175Z,96963.38
2023-03-27T21:08:55.125Z,96956.75
2023-03-27T21:11:28.167Z,96966.78
2023-03-27T21:14:01.768Z,96980.84
2023-03-27T21:16:34.630Z,96982.41
2023-03-27T21:19:10.273Z,96987.16
2023-03-27T21:21:43.401Z,96992.97
2023-03-27T21:24:16.986Z,96996.16
2023-03-27T21:26:49.899Z,96994.78
2023-03-27T21:29:22.994Z,96993.47
2023-03-27T21:31:56.044Z,96999.56
2023-03-27T21:34:30.711Z,97002.47
2023-03-27T21:37:03.603Z,97001.09
2023-03-27T21:39:36.516Z,97002.41
2023-03-27T21:42:09.283Z,97005.59
2023-03-27T21:44:42.395Z,96997.06
2023-03-27T21:47:15.389Z,96992.28
2023-03-27T21:49:49.850Z,96993.59
2023-03-27T21:52:22.807Z,96991.72
2023-03-27T21:55:03.019Z,96996.44
2023-03-27T21:57:36.409Z,96997.50
2023-03-27T22:00:09.814Z,96999.06
2023-03-27T22:02:42.850Z,97002.25
2023-03-27T22:05:17.210Z,97010.16
2023-03-27T22:07:50.111Z,97016.25
2023-03-27T22:10:23.159Z,97016.78
2023-03-27T22:12:56.006Z,97016.50
2023-03-27T22:15:29.104Z,97018.31
2023-03-27T22:18:02.476Z,97016.44
2023-03-27T22:20:36.856Z,97017.50
2023-03-27T22:23:09.682Z,97034.47
2023-03-27T22:25:42.651Z,97034.47
2023-03-27T22:28:15.685Z,97040.25
2023-03-27T22:30:49.265Z,97041.06
2023-03-27T22:33:22.230Z,97043.16
2023-03-27T22:35:56.565Z,97041.31
2023-03-27T22:38:30.429Z,97042.91
2023-03-27T22:41:05.328Z,97037.81
2023-03-27T22:43:38.380Z,97044.22
2023-03-27T22:46:12.299Z,97046.84
2023-03-27T22:48:45.738Z,97047.41
2023-03-27T22:51:20.057Z,97047.69
2023-03-27T22:53:52.844Z,97051.19
2023-03-27T22:56:25.879Z,97050.94
2023-03-27T22:58:59.078Z,97054.94
2023-03-27T23:01:32.088Z,97059.75
2023-03-27T23:04:05.214Z,97058.44
2023-03-27T23:06:39.831Z,97057.91
2023-03-27T23:09:12.739Z,97060.03
2023-03-27T23:11:45.756Z,97056.88
2023-03-27T23:14:18.859Z,97067.78
2023-03-27T23:16:51.670Z,97063.53
2023-03-27T23:19:24.750Z,97060.09
2023-03-27T23:21:58.939Z,97066.72
2023-03-27T23:24:32.093Z,97067.00
2023-03-27T23:27:08.556Z,97069.66
2023-03-27T23:29:41.408Z,97076.03
2023-03-27T23:32:14.123Z,97071.28
2023-03-27T23:34:47.064Z,97076.34
2023-03-27T23:37:21.248Z,97082.22
2023-03-27T23:39:54.060Z,97080.38
2023-03-27T23:42:27.296Z,97086.78
2023-03-27T23:45:00.048Z,97086.00
2023-03-27T23:47:32.818Z,97091.63
2023-03-27T23:50:06.242Z,97093.78
2023-03-27T23:52:40.607Z,97099.66
2023-03-27T23:55:13.435Z,97110.28
2023-03-27T23:57:46.835Z,97112.38
